Time;durP1;ratioP1;P1;durP2;ratioP2;P2;SDS_P1;SDS_P2;PMS_P1;PMS_P2;Temp;Humidity;BMP_temperature;BMP_pressure;BME280_temperature;BME280_humidity;BME280_pressure;Samples;Min_cycle;Max_cycle;Signal;HPM_P1;HPM_P2
2022/05/13 00:01:12;;;;;;;3.10;1.20;;;;;;;;;;5008751;28;20204;-61
2022/05/13 00:03:40;;;;;;;2.90;1.23;;;;;;;;;;5005585;28;20267;-62
2022/05/13 00:06:08;;;;;;;2.80;1.33;;;;;;;;;;5008094;28;20199;-62
2022/05/13 00:08:35;;;;;;;4.50;1.17;;;;;;;;;;5010370;28;20228;-61
2022/05/13 00:11:03;;;;;;;2.70;1.00;;;;;;;;;;5009112;28;20203;-62
2022/05/13 00:13:30;;;;;;;1.77;0.87;;;;;;;;;;5010129;28;20188;-61
2022/05/13 00:15:59;;;;;;;3.30;1.20;;;;;;;;;;4999972;28;20589;-62
2022/05/13 00:18:26;;;;;;;2.17;1.20;;;;;;;;;;5006896;28;20204;-62
2022/05/13 00:20:54;;;;;;;4.03;1.50;;;;;;;;;;5009010;28;20203;-62
2022/05/13 00:23:21;;;;;;;3.03;1.53;;;;;;;;;;5014077;28;20786;-61
2022/05/13 00:25:48;;;;;;;3.13;1.63;;;;;;;;;;5008825;28;20290;-62
2022/05/13 00:28:15;;;;;;;2.17;1.10;;;;;;;;;;4986167;28;20614;-61
2022/05/13 00:30:48;;;;;;;3.43;1.30;;;;;;;;;;5005749;28;20672;-62
2022/05/13 00:33:16;;;;;;;2.90;1.30;;;;;;;;;;5012461;28;20690;-62
2022/05/13 00:35:43;;;;;;;2.60;1.40;;;;;;;;;;5008142;28;20199;-61
2022/05/13 00:38:10;;;;;;;2.20;0.90;;;;;;;;;;5005641;28;20611;-60
2022/05/13 00:40:38;;;;;;;2.27;1.30;;;;;;;;;;5009119;28;20330;-61
2022/05/13 00:43:07;;;;;;;4.00;1.70;;;;;;;;;;5009331;28;20194;-62
2022/05/13 00:45:34;;;;;;;2.13;1.23;;;;;;;;;;5006165;28;20282;-62
2022/05/13 00:48:01;;;;;;;2.90;1.30;;;;;;;;;;5010742;28;20211;-61
2022/05/13 00:50:30;;;;;;;2.30;1.40;;;;;;;;;;5003517;28;20873;-61
2022/05/13 00:52:57;;;;;;;3.37;1.40;;;;;;;;;;5009751;28;20663;-61
2022/05/13 00:55:31;;;;;;;2.27;1.00;;;;;;;;;;5008179;28;20754;-62
2022/05/13 00:57:58;;;;;;;2.87;1.40;;;;;;;;;;5013353;28;20254;-62
2022/05/13 01:00:25;;;;;;;3.03;1.30;;;;;;;;;;5008938;28;20210;-62
2022/05/13 01:02:52;;;;;;;2.10;1.20;;;;;;;;;;5005199;28;20219;-62
2022/05/13 01:05:20;;;;;;;2.87;1.30;;;;;;;;;;5011880;28;20215;-62
2022/05/13 01:07:50;;;;;;;2.77;1.33;;;;;;;;;;5010478;28;20271;-61
2022/05/13 01:10:19;;;;;;;2.53;1.40;;;;;;;;;;5005808;28;20203;-61
2022/05/13 01:12:50;;;;;;;2.13;1.20;;;;;;;;;;5007062;28;20204;-62
2022/05/13 01:15:26;;;;;;;3.47;1.20;;;;;;;;;;5007450;28;20218;-61
2022/05/13 01:18:06;;;;;;;2.53;1.03;;;;;;;;;;5009751;28;20199;-62
2022/05/13 01:20:46;;;;;;;2.40;1.10;;;;;;;;;;5007911;28;20688;-62
2022/05/13 01:23:17;;;;;;;3.40;1.30;;;;;;;;;;5008254;28;20203;-62
2022/05/13 01:25:46;;;;;;;4.43;1.30;;;;;;;;;;5007235;28;20207;-61
2022/05/13 01:28:15;;;;;;;3.33;1.17;;;;;;;;;;5001880;28;20294;-61
2022/05/13 01:30:44;;;;;;;1.30;0.93;;;;;;;;;;4982012;28;20211;-61
2022/05/13 01:33:11;;;;;;;3.03;1.33;;;;;;;;;;5007607;28;20200;-62
2022/05/13 01:35:40;;;;;;;2.40;1.13;;;;;;;;;;5005117;28;20274;-62
2022/05/13 01:38:07;;;;;;;3.27;1.27;;;;;;;;;;5009422;28;20208;-62
2022/05/13 01:40:34;;;;;;;3.50;1.23;;;;;;;;;;5003622;28;20271;-62
2022/05/13 01:43:01;;;;;;;2.87;1.10;;;;;;;;;;5006686;28;20211;-62
2022/05/13 01:45:29;;;;;;;2.10;1.10;;;;;;;;;;5008871;28;20242;-61
2022/05/13 01:47:56;;;;;;;3.63;1.20;;;;;;;;;;5012325;28;20657;-62
2022/05/13 01:50:24;;;;;;;2.80;1.10;;;;;;;;;;5002225;28;20270;-61
2022/05/13 01:52:55;;;;;;;2.30;1.20;;;;;;;;;;5006633;28;20195;-62
2022/05/13 01:55:27;;;;;;;3.10;1.20;;;;;;;;;;4985939;28;20192;-61
2022/05/13 01:57:57;;;;;;;2.97;1.40;;;;;;;;;;5007069;28;20208;-62
2022/05/13 02:00:28;;;;;;;2.73;1.20;;;;;;;;;;4991691;28;20238;-62
2022/05/13 02:05:45;;;;;;;2.27;1.10;;;;;;;;;;5008790;28;20196;-61
2022/05/13 02:08:17;;;;;;;2.57;1.03;;;;;;;;;;4984488;28;20333;-62
2022/05/13 02:10:47;;;;;;;2.93;1.30;;;;;;;;;;5009585;28;20196;-62
2022/05/13 02:13:16;;;;;;;2.10;1.00;;;;;;;;;;5009182;28;20617;-61
2022/05/13 02:15:47;;;;;;;2.33;1.30;;;;;;;;;;4988733;28;20704;-61
2022/05/13 02:18:17;;;;;;;3.40;1.37;;;;;;;;;;5004445;28;20192;-61
2022/05/13 02:20:48;;;;;;;4.03;1.37;;;;;;;;;;5007333;28;20203;-61
2022/05/13 02:23:25;;;;;;;2.27;1.10;;;;;;;;;;4988349;28;20265;-61
2022/05/13 02:25:59;;;;;;;2.53;1.20;;;;;;;;;;5011467;28;20261;-61
2022/05/13 02:28:27;;;;;;;4.17;1.17;;;;;;;;;;4984287;28;20219;-62
2022/05/13 02:31:01;;;;;;;3.20;1.10;;;;;;;;;;5007114;28;20223;-62
2022/05/13 02:33:32;;;;;;;3.47;1.33;;;;;;;;;;4989611;28;20215;-61
2022/05/13 02:36:05;;;;;;;4.03;1.43;;;;;;;;;;4993086;28;20235;-62
2022/05/13 02:38:37;;;;;;;2.47;1.20;;;;;;;;;;4998221;28;20216;-62
2022/05/13 02:41:12;;;;;;;2.07;1.20;;;;;;;;;;4991469;28;20227;-61
2022/05/13 02:43:51;;;;;;;5.63;1.23;;;;;;;;;;5001164;28;20196;-62
2022/05/13 02:46:28;;;;;;;2.33;1.00;;;;;;;;;;5001706;28;20217;-61
2022/05/13 02:49:01;;;;;;;3.50;1.20;;;;;;;;;;4988465;28;20755;-62
2022/05/13 02:51:28;;;;;;;2.60;0.90;;;;;;;;;;5007124;28;20215;-61
2022/05/13 02:54:00;;;;;;;2.40;1.30;;;;;;;;;;5006178;28;20195;-62
2022/05/13 02:56:31;;;;;;;2.00;1.13;;;;;;;;;;5003400;28;20204;-61
2022/05/13 02:58:58;;;;;;;2.47;1.10;;;;;;;;;;5006598;28;20343;-62
2022/05/13 03:01:29;;;;;;;3.17;1.23;;;;;;;;;;4996727;28;20782;-61
2022/05/13 03:03:58;;;;;;;2.03;1.10;;;;;;;;;;5007341;28;20230;-62
2022/05/13 03:06:30;;;;;;;2.63;0.80;;;;;;;;;;5016911;28;20703;-62
2022/05/13 03:09:03;;;;;;;2.70;1.13;;;;;;;;;;5003886;28;20247;-62
2022/05/13 03:11:30;;;;;;;1.60;1.17;;;;;;;;;;5013557;28;20207;-61
2022/05/13 03:14:00;;;;;;;3.10;1.30;;;;;;;;;;5010135;28;20562;-62
2022/05/13 03:16:27;;;;;;;2.50;1.00;;;;;;;;;;4989564;28;20198;-61
2022/05/13 03:18:56;;;;;;;1.87;0.90;;;;;;;;;;5012968;28;20669;-61
2022/05/13 03:21:26;;;;;;;1.40;0.90;;;;;;;;;;5011683;28;20627;-62
2022/05/13 03:23:58;;;;;;;2.07;1.10;;;;;;;;;;5009521;28;20532;-61
2022/05/13 03:26:25;;;;;;;2.13;1.00;;;;;;;;;;5003421;28;20227;-62
2022/05/13 03:28:53;;;;;;;2.10;0.83;;;;;;;;;;5009934;28;20223;-62
2022/05/13 03:31:21;;;;;;;3.30;1.30;;;;;;;;;;5013075;28;20192;-61
2022/05/13 03:33:53;;;;;;;2.23;1.00;;;;;;;;;;5002872;28;20212;-61
2022/05/13 03:36:24;;;;;;;2.83;0.97;;;;;;;;;;5010261;28;20191;-60
2022/05/13 03:38:56;;;;;;;2.57;1.17;;;;;;;;;;5005516;28;20208;-61
2022/05/13 03:41:27;;;;;;;1.63;0.90;;;;;;;;;;5012921;28;20204;-61
2022/05/13 03:43:59;;;;;;;2.17;0.93;;;;;;;;;;5009557;28;20594;-62
2022/05/13 03:46:30;;;;;;;2.73;1.00;;;;;;;;;;5006497;28;20219;-61
2022/05/13 03:49:01;;;;;;;2.87;1.10;;;;;;;;;;5007037;28;20235;-61
2022/05/13 03:51:42;;;;;;;3.07;1.27;;;;;;;;;;5008166;28;20224;-62
2022/05/13 03:54:13;;;;;;;2.37;1.10;;;;;;;;;;4993285;28;20571;-61
2022/05/13 03:56:44;;;;;;;2.30;1.33;;;;;;;;;;5015337;28;20258;-61
2022/05/13 03:59:14;;;;;;;2.33;1.10;;;;;;;;;;5008769;28;20204;-61
2022/05/13 04:01:43;;;;;;;2.93;1.47;;;;;;;;;;5010246;28;20733;-61
2022/05/13 04:04:14;;;;;;;2.40;1.13;;;;;;;;;;4987914;28;20737;-62
2022/05/13 04:09:42;;;;;;;1.90;0.93;;;;;;;;;;5008965;28;20223;-62
2022/05/13 04:17:47;;;;;;;2.87;1.30;;;;;;;;;;5007183;28;20234;-61
2022/05/13 04:20:21;;;;;;;2.53;1.10;;;;;;;;;;5006347;28;20618;-61
2022/05/13 04:23:02;;;;;;;2.53;1.13;;;;;;;;;;5002410;28;20717;-61
2022/05/13 04:25:35;;;;;;;3.10;1.40;;;;;;;;;;5012157;28;20223;-61
2022/05/13 04:28:06;;;;;;;1.57;0.80;;;;;;;;;;5005611;28;20715;-61
2022/05/13 04:30:33;;;;;;;3.40;1.30;;;;;;;;;;5007351;28;20285;-61
2022/05/13 04:33:02;;;;;;;3.00;1.10;;;;;;;;;;5004140;28;20210;-61
2022/05/13 04:35:34;;;;;;;3.33;1.57;;;;;;;;;;5013929;28;20191;-62
2022/05/13 04:38:06;;;;;;;3.70;1.17;;;;;;;;;;5011713;28;20184;-62
2022/05/13 04:40:35;;;;;;;2.97;1.43;;;;;;;;;;5005815;28;20207;-62
2022/05/13 04:43:06;;;;;;;2.70;1.37;;;;;;;;;;5007611;28;20247;-62
2022/05/13 04:45:37;;;;;;;3.23;1.30;;;;;;;;;;5007797;28;20282;-62
2022/05/13 04:48:26;;;;;;;4.47;1.43;;;;;;;;;;5010507;28;20219;-62
2022/05/13 04:51:02;;;;;;;3.13;1.27;;;;;;;;;;5009105;28;20677;-60
2022/05/13 04:53:33;;;;;;;3.37;1.27;;;;;;;;;;5008604;28;20230;-60
2022/05/13 04:56:00;;;;;;;2.80;1.17;;;;;;;;;;5011578;28;20199;-60
2022/05/13 04:58:30;;;;;;;4.63;1.30;;;;;;;;;;4994067;28;20204;-60
2022/05/13 05:01:01;;;;;;;2.10;1.03;;;;;;;;;;4975110;28;20250;-60
2022/05/13 05:03:30;;;;;;;4.10;1.20;;;;;;;;;;5016833;28;20221;-60
2022/05/13 05:06:02;;;;;;;3.67;1.53;;;;;;;;;;5014481;28;20188;-60
2022/05/13 05:08:33;;;;;;;3.53;1.70;;;;;;;;;;4987909;28;20228;-61
2022/05/13 05:11:03;;;;;;;3.37;1.43;;;;;;;;;;5010647;28;20721;-60
2022/05/13 05:13:35;;;;;;;45.27;14.37;;;;;;;;;;5010498;28;20219;-60
2022/05/13 05:16:02;;;;;;;47.73;14.40;;;;;;;;;;5012067;28;20270;-63
2022/05/13 05:18:31;;;;;;;44.43;13.10;;;;;;;;;;5007884;28;20208;-63
2022/05/13 05:20:58;;;;;;;31.90;9.90;;;;;;;;;;5009592;28;20203;-61
2022/05/13 05:23:27;;;;;;;29.47;8.30;;;;;;;;;;5009396;28;20246;-61
2022/05/13 05:25:56;;;;;;;20.50;6.40;;;;;;;;;;5003159;28;20196;-61
2022/05/13 05:28:28;;;;;;;17.90;6.00;;;;;;;;;;4997312;28;20661;-61
2022/05/13 05:31:01;;;;;;;18.67;6.03;;;;;;;;;;5008050;28;20200;-63
2022/05/13 05:33:31;;;;;;;15.63;4.70;;;;;;;;;;5015519;28;20226;-63
2022/05/13 05:36:04;;;;;;;10.63;4.10;;;;;;;;;;5008686;28;20811;-60
2022/05/13 05:38:34;;;;;;;8.90;3.23;;;;;;;;;;5006752;28;20427;-61
2022/05/13 05:41:04;;;;;;;9.13;3.23;;;;;;;;;;5008146;28;20885;-63
2022/05/13 05:43:35;;;;;;;11.37;2.73;;;;;;;;;;5012247;28;20196;-63
2022/05/13 05:46:06;;;;;;;5.53;2.17;;;;;;;;;;5010431;28;20195;-63
2022/05/13 05:48:38;;;;;;;7.93;2.70;;;;;;;;;;5011305;28;20198;-63
2022/05/13 05:51:11;;;;;;;7.63;2.43;;;;;;;;;;5020546;28;20215;-63
2022/05/13 05:59:15;;;;;;;4.33;2.00;;;;;;;;;;5003836;28;20191;-62
2022/05/13 06:01:42;;;;;;;7.47;2.23;;;;;;;;;;5007564;28;20289;-62
2022/05/13 06:04:14;;;;;;;5.13;2.20;;;;;;;;;;5002571;28;20664;-61
2022/05/13 06:06:44;;;;;;;6.73;2.30;;;;;;;;;;5009092;28;20207;-63
2022/05/13 06:09:12;;;;;;;4.97;1.93;;;;;;;;;;5007006;28;20772;-63
2022/05/13 06:11:40;;;;;;;7.23;2.13;;;;;;;;;;5007406;28;20195;-63
2022/05/13 06:14:09;;;;;;;4.57;1.60;;;;;;;;;;5004336;28;20211;-63
2022/05/13 06:16:37;;;;;;;3.47;1.77;;;;;;;;;;4994938;28;20626;-61
2022/05/13 06:19:04;;;;;;;4.87;1.80;;;;;;;;;;4995075;28;20243;-61
2022/05/13 06:21:33;;;;;;;5.90;1.90;;;;;;;;;;4999275;28;20281;-63
2022/05/13 06:24:00;;;;;;;6.83;1.87;;;;;;;;;;5007024;28;20688;-63
2022/05/13 06:26:28;;;;;;;10.73;2.80;;;;;;;;;;5006210;28;20220;-63
2022/05/13 06:28:55;;;;;;;24.57;6.60;;;;;;;;;;5007208;28;20214;-63
2022/05/13 06:31:24;;;;;;;19.03;5.37;;;;;;;;;;5007364;28;20284;-61
2022/05/13 06:33:56;;;;;;;19.97;5.53;;;;;;;;;;5006767;28;20187;-61
2022/05/13 06:36:23;;;;;;;17.27;4.90;;;;;;;;;;5005614;28;20203;-61
2022/05/13 06:38:51;;;;;;;14.90;4.13;;;;;;;;;;5003439;28;20294;-61
2022/05/13 06:41:29;;;;;;;9.67;3.70;;;;;;;;;;5007460;28;20733;-64
2022/05/13 06:44:02;;;;;;;8.50;3.10;;;;;;;;;;5003659;28;20269;-62
2022/05/13 06:46:35;;;;;;;9.20;3.03;;;;;;;;;;4994440;28;20204;-63
2022/05/13 06:49:06;;;;;;;8.27;2.57;;;;;;;;;;4995869;28;20622;-63
2022/05/13 06:51:34;;;;;;;8.27;2.30;;;;;;;;;;5016436;28;20214;-63
2022/05/13 06:54:07;;;;;;;6.33;2.60;;;;;;;;;;5009105;28;20202;-63
2022/05/13 06:56:37;;;;;;;5.97;2.73;;;;;;;;;;4983678;28;20188;-63
2022/05/13 06:59:08;;;;;;;9.03;2.50;;;;;;;;;;4997321;28;20189;-63
2022/05/13 07:01:40;;;;;;;7.40;2.60;;;;;;;;;;4996102;28;20611;-63
2022/05/13 07:04:10;;;;;;;5.37;2.20;;;;;;;;;;4996445;28;20219;-63
2022/05/13 07:06:42;;;;;;;7.28;2.08;;;;;;;;;;5006542;28;20435;-64
2022/05/13 07:09:13;;;;;;;7.73;2.30;;;;;;;;;;5004825;28;20290;-63
2022/05/13 07:11:55;;;;;;;5.97;2.07;;;;;;;;;;4990504;28;20237;-63
2022/05/13 07:14:23;;;;;;;4.80;2.20;;;;;;;;;;5001937;28;20191;-63
2022/05/13 07:16:50;;;;;;;3.53;1.90;;;;;;;;;;5006673;28;20215;-63
2022/05/13 07:19:17;;;;;;;6.37;2.20;;;;;;;;;;5010264;28;20246;-63
2022/05/13 07:21:46;;;;;;;6.17;2.17;;;;;;;;;;5005876;28;20210;-63
2022/05/13 07:24:15;;;;;;;5.10;2.37;;;;;;;;;;5008310;28;20211;-63
2022/05/13 07:26:42;;;;;;;5.20;2.10;;;;;;;;;;5008298;28;20280;-63
2022/05/13 07:29:09;;;;;;;11.73;2.20;;;;;;;;;;5008303;28;20250;-63
2022/05/13 07:31:39;;;;;;;5.67;2.00;;;;;;;;;;5006489;28;20645;-62
2022/05/13 07:34:11;;;;;;;5.53;2.13;;;;;;;;;;5000019;28;20216;-62
2022/05/13 07:36:45;;;;;;;3.97;1.77;;;;;;;;;;5003251;28;20196;-62
2022/05/13 07:42:09;;;;;;;5.57;2.27;;;;;;;;;;4987105;28;20541;-63
2022/05/13 07:44:58;;;;;;;5.83;1.90;;;;;;;;;;5008343;28;20196;-63
2022/05/13 07:47:30;;;;;;;7.23;2.20;;;;;;;;;;5003755;28;20230;-63
2022/05/13 07:50:00;;;;;;;5.80;2.57;;;;;;;;;;5012374;28;20223;-62
2022/05/13 07:52:27;;;;;;;8.53;2.20;;;;;;;;;;5000527;28;20406;-63
2022/05/13 07:54:54;;;;;;;5.93;1.80;;;;;;;;;;4992692;28;20796;-65
2022/05/13 07:57:23;;;;;;;4.43;1.70;;;;;;;;;;5009218;28;20203;-63
2022/05/13 08:02:40;;;;;;;4.67;2.00;;;;;;;;;;4981872;28;20277;-65
2022/05/13 08:05:09;;;;;;;5.30;1.70;;;;;;;;;;5008435;28;20224;-65
2022/05/13 08:07:39;;;;;;;4.63;2.07;;;;;;;;;;5008871;28;20236;-65
2022/05/13 08:10:19;;;;;;;6.67;2.07;;;;;;;;;;4985399;28;20583;-63
2022/05/13 08:12:49;;;;;;;6.33;2.70;;;;;;;;;;5001642;28;20192;-62
2022/05/13 08:15:16;;;;;;;7.77;2.43;;;;;;;;;;4990139;28;20262;-62
2022/05/13 08:17:46;;;;;;;4.57;2.20;;;;;;;;;;5008149;28;20192;-62
2022/05/13 08:20:18;;;;;;;8.73;2.87;;;;;;;;;;5009324;28;20191;-65
2022/05/13 08:22:50;;;;;;;5.77;2.23;;;;;;;;;;5008155;28;20230;-66
2022/05/13 08:25:20;;;;;;;5.93;1.90;;;;;;;;;;5005316;28;20195;-63
2022/05/13 08:27:47;;;;;;;6.13;2.20;;;;;;;;;;5008246;28;20650;-64
2022/05/13 08:30:15;;;;;;;5.13;2.23;;;;;;;;;;5009084;28;20716;-63
2022/05/13 08:32:43;;;;;;;5.10;2.27;;;;;;;;;;5008279;28;20199;-63
2022/05/13 08:35:11;;;;;;;4.77;2.40;;;;;;;;;;5000957;28;20243;-62
2022/05/13 08:37:53;;;;;;;7.23;2.20;;;;;;;;;;5006650;28;20199;-66
2022/05/13 08:40:32;;;;;;;5.23;2.30;;;;;;;;;;5005325;28;20273;-65
2022/05/13 08:43:00;;;;;;;3.77;1.90;;;;;;;;;;5009971;28;20303;-65
2022/05/13 08:45:28;;;;;;;3.37;1.90;;;;;;;;;;4985928;28;20258;-64
2022/05/13 08:48:01;;;;;;;5.40;2.23;;;;;;;;;;5002377;28;20229;-65
2022/05/13 08:50:43;;;;;;;6.87;2.83;;;;;;;;;;4986954;28;20669;-63
2022/05/13 08:53:29;;;;;;;5.13;2.30;;;;;;;;;;4984979;28;20262;-64
2022/05/13 08:56:09;;;;;;;3.53;2.13;;;;;;;;;;5005075;28;20511;-64
2022/05/13 08:58:44;;;;;;;7.23;2.87;;;;;;;;;;5008167;28;20192;-64
2022/05/13 09:01:19;;;;;;;5.80;2.23;;;;;;;;;;5013690;28;20227;-63
2022/05/13 09:03:50;;;;;;;6.80;2.60;;;;;;;;;;5003963;28;20207;-65
2022/05/13 09:06:39;;;;;;;6.53;2.80;;;;;;;;;;5006614;28;20219;-64
2022/05/13 09:09:12;;;;;;;4.97;2.60;;;;;;;;;;5006884;28;20289;-63
2022/05/13 09:11:58;;;;;;;4.67;2.60;;;;;;;;;;5010648;28;20258;-64
2022/05/13 09:14:41;;;;;;;4.77;2.60;;;;;;;;;;4998728;28;20211;-64
2022/05/13 09:17:13;;;;;;;4.43;2.37;;;;;;;;;;5005941;28;20215;-63
2022/05/13 09:20:04;;;;;;;7.60;2.77;;;;;;;;;;5009642;28;20203;-61
2022/05/13 09:22:41;;;;;;;7.40;2.80;;;;;;;;;;4975987;28;20207;-61
2022/05/13 09:25:29;;;;;;;5.33;2.40;;;;;;;;;;5010394;28;20230;-60
2022/05/13 09:27:59;;;;;;;5.23;2.10;;;;;;;;;;4997074;28;20219;-62
2022/05/13 09:30:34;;;;;;;4.67;2.87;;;;;;;;;;5008116;28;20208;-63
2022/05/13 09:33:20;;;;;;;3.70;1.90;;;;;;;;;;5006567;28;20199;-64
2022/05/13 09:35:48;;;;;;;7.17;2.33;;;;;;;;;;5011982;28;20204;-64
2022/05/13 09:38:24;;;;;;;4.50;1.97;;;;;;;;;;4999260;28;20204;-63
2022/05/13 09:41:06;;;;;;;4.60;2.60;;;;;;;;;;5004780;28;20257;-63
2022/05/13 09:43:34;;;;;;;5.43;2.90;;;;;;;;;;4999647;28;20706;-65
2022/05/13 09:46:05;;;;;;;4.30;2.70;;;;;;;;;;5004765;28;20199;-65
2022/05/13 09:48:38;;;;;;;5.20;3.00;;;;;;;;;;4978382;28;20590;-63
2022/05/13 09:51:24;;;;;;;4.70;2.60;;;;;;;;;;5003418;28;20850;-64
2022/05/13 09:54:06;;;;;;;4.33;3.10;;;;;;;;;;5004140;28;20605;-63
2022/05/13 09:56:42;;;;;;;5.13;2.80;;;;;;;;;;5007879;28;20585;-64
2022/05/13 09:59:21;;;;;;;4.90;3.20;;;;;;;;;;5005915;28;20199;-63
2022/05/13 10:01:52;;;;;;;4.37;2.97;;;;;;;;;;5007160;28;20199;-64
2022/05/13 10:04:23;;;;;;;4.97;2.90;;;;;;;;;;5015981;28;20212;-64
2022/05/13 10:07:12;;;;;;;6.80;3.13;;;;;;;;;;5006755;28;20215;-61
2022/05/13 10:15:40;;;;;;;6.13;3.40;;;;;;;;;;4960710;28;20208;-61
2022/05/13 10:18:29;;;;;;;6.83;3.47;;;;;;;;;;5006228;28;20625;-61
2022/05/13 10:21:01;;;;;;;4.87;2.90;;;;;;;;;;4999733;28;20210;-64
2022/05/13 10:23:43;;;;;;;6.93;3.27;;;;;;;;;;5006688;28;20207;-64
2022/05/13 10:26:13;;;;;;;5.03;3.30;;;;;;;;;;5007406;28;20363;-62
2022/05/13 10:28:57;;;;;;;5.93;3.67;;;;;;;;;;5006872;28;20210;-63
2022/05/13 10:31:30;;;;;;;7.77;3.70;;;;;;;;;;5010969;28;20461;-63
2022/05/13 10:34:19;;;;;;;5.77;3.17;;;;;;;;;;5006190;28;20215;-63
2022/05/13 10:36:54;;;;;;;4.93;2.97;;;;;;;;;;5007748;28;20204;-63
2022/05/13 10:39:45;;;;;;;4.30;2.93;;;;;;;;;;5001724;28;20559;-60
2022/05/13 10:42:22;;;;;;;7.33;3.40;;;;;;;;;;4999868;28;20218;-63
2022/05/13 10:44:55;;;;;;;4.40;3.30;;;;;;;;;;5010196;28;20195;-64
2022/05/13 10:47:29;;;;;;;4.60;2.93;;;;;;;;;;5006863;28;20215;-64
2022/05/13 10:49:56;;;;;;;17.80;3.37;;;;;;;;;;5007270;28;20239;-62
2022/05/13 10:52:28;;;;;;;8.83;2.90;;;;;;;;;;5005337;28;20594;-64
2022/05/13 10:55:22;;;;;;;7.00;3.20;;;;;;;;;;5009454;28;20631;-63
2022/05/13 10:58:18;;;;;;;7.03;3.20;;;;;;;;;;4996218;28;20266;-64
2022/05/13 11:01:08;;;;;;;3.67;2.83;;;;;;;;;;4981943;28;20696;-65
2022/05/13 11:03:54;;;;;;;4.93;2.97;;;;;;;;;;4993308;28;20232;-66
2022/05/13 11:06:29;;;;;;;4.13;3.03;;;;;;;;;;4998941;28;20243;-63
2022/05/13 11:08:57;;;;;;;6.40;3.03;;;;;;;;;;5004111;28;20240;-64
2022/05/13 11:11:39;;;;;;;7.20;3.30;;;;;;;;;;5004318;28;20227;-66
2022/05/13 11:14:26;;;;;;;6.37;3.20;;;;;;;;;;4998841;28;20204;-65
2022/05/13 11:17:05;;;;;;;3.60;2.90;;;;;;;;;;5001434;28;20211;-65
2022/05/13 11:19:37;;;;;;;5.70;3.30;;;;;;;;;;5005002;28;20187;-65
2022/05/13 11:22:07;;;;;;;4.80;3.53;;;;;;;;;;5009251;28;20219;-65
2022/05/13 11:27:23;;;;;;;4.97;3.33;;;;;;;;;;5011655;28;20231;-65
2022/05/13 11:29:54;;;;;;;6.37;3.60;;;;;;;;;;5003322;28;20196;-63
2022/05/13 11:32:21;;;;;;;6.20;3.60;;;;;;;;;;5007099;28;20218;-64
2022/05/13 11:35:07;;;;;;;5.63;3.83;;;;;;;;;;5002906;28;20204;-64
2022/05/13 11:37:40;;;;;;;5.83;3.53;;;;;;;;;;5011690;28;20204;-64
2022/05/13 11:40:25;;;;;;;10.40;4.03;;;;;;;;;;5001031;28;20234;-64
2022/05/13 11:43:20;;;;;;;6.13;3.47;;;;;;;;;;5009640;28;20532;-64
2022/05/13 11:46:04;;;;;;;5.97;3.70;;;;;;;;;;5007726;28;20278;-65
2022/05/13 11:48:36;;;;;;;4.57;3.70;;;;;;;;;;5002755;28;20192;-63
2022/05/13 11:51:10;;;;;;;6.57;4.90;;;;;;;;;;4992299;28;20230;-64
2022/05/13 11:53:49;;;;;;;5.90;4.30;;;;;;;;;;5007446;28;20751;-64
2022/05/13 11:56:26;;;;;;;4.53;3.53;;;;;;;;;;4994038;28;20276;-64
2022/05/13 11:58:57;;;;;;;8.43;3.67;;;;;;;;;;4993486;28;20348;-65
2022/05/13 12:01:39;;;;;;;5.97;3.70;;;;;;;;;;5002516;28;20260;-65
2022/05/13 12:04:27;;;;;;;5.23;3.20;;;;;;;;;;5001614;28;20621;-66
2022/05/13 12:06:56;;;;;;;5.10;3.67;;;;;;;;;;4998785;28;20211;-65
2022/05/13 12:09:32;;;;;;;9.23;3.23;;;;;;;;;;4989934;28;20247;-65
2022/05/13 12:12:01;;;;;;;5.10;3.10;;;;;;;;;;5001333;28;20308;-64
2022/05/13 12:14:41;;;;;;;4.50;2.53;;;;;;;;;;4992380;28;20231;-64
2022/05/13 12:17:27;;;;;;;3.53;2.90;;;;;;;;;;4994064;28;20210;-63
2022/05/13 12:19:54;;;;;;;5.90;2.90;;;;;;;;;;5000919;28;20215;-64
2022/05/13 12:22:36;;;;;;;5.07;2.87;;;;;;;;;;5003448;28;20567;-64
2022/05/13 12:25:03;;;;;;;6.00;3.23;;;;;;;;;;4995801;28;20195;-65
2022/05/13 12:27:39;;;;;;;4.87;3.77;;;;;;;;;;5004593;28;20258;-64
2022/05/13 12:30:11;;;;;;;4.83;3.37;;;;;;;;;;5001147;28;20265;-63
2022/05/13 12:32:44;;;;;;;6.70;3.23;;;;;;;;;;5007598;28;20227;-63
2022/05/13 12:38:19;;;;;;;6.80;2.93;;;;;;;;;;5001059;28;20477;-64
2022/05/13 12:41:15;;;;;;;4.27;3.03;;;;;;;;;;4998791;28;20288;-63
2022/05/13 12:43:55;;;;;;;4.57;2.90;;;;;;;;;;5002012;28;20257;-64
2022/05/13 12:46:41;;;;;;;3.80;2.67;;;;;;;;;;4992140;28;20266;-63
2022/05/13 12:49:11;;;;;;;6.37;3.63;;;;;;;;;;4986807;28;20711;-64
2022/05/13 12:51:45;;;;;;;4.93;3.43;;;;;;;;;;4982876;28;20800;-63
2022/05/13 12:54:16;;;;;;;6.43;4.23;;;;;;;;;;4994705;28;20227;-62
2022/05/13 12:56:51;;;;;;;4.23;3.83;;;;;;;;;;5009871;28;20219;-63
2022/05/13 12:59:27;;;;;;;5.93;3.43;;;;;;;;;;4983918;28;20203;-63
2022/05/13 13:01:57;;;;;;;5.97;3.67;;;;;;;;;;5007496;28;20206;-63
2022/05/13 13:04:25;;;;;;;5.97;4.00;;;;;;;;;;5002340;28;20199;-62
2022/05/13 13:06:53;;;;;;;4.13;3.73;;;;;;;;;;5008234;28;20601;-62
2022/05/13 13:09:20;;;;;;;6.67;3.73;;;;;;;;;;5002832;28;20286;-63
2022/05/13 13:11:50;;;;;;;6.27;4.10;;;;;;;;;;5010403;28;20220;-63
2022/05/13 13:14:48;;;;;;;3.40;3.10;;;;;;;;;;5004261;28;20193;-62
2022/05/13 13:17:39;;;;;;;7.10;3.33;;;;;;;;;;4989271;28;20211;-64
2022/05/13 13:20:08;;;;;;;6.00;4.00;;;;;;;;;;5008212;28;20212;-64
2022/05/13 13:22:39;;;;;;;8.30;3.40;;;;;;;;;;5011019;28;20199;-64
2022/05/13 13:25:10;;;;;;;7.60;3.67;;;;;;;;;;5012295;28;20211;-64
2022/05/13 13:27:38;;;;;;;6.00;3.40;;;;;;;;;;5013349;28;20778;-64
2022/05/13 13:30:05;;;;;;;7.53;2.73;;;;;;;;;;4987967;28;20220;-65
2022/05/13 13:32:33;;;;;;;3.93;2.67;;;;;;;;;;5007035;28;20685;-65
2022/05/13 13:35:01;;;;;;;4.73;2.60;;;;;;;;;;5016328;28;20679;-65
2022/05/13 13:37:30;;;;;;;7.07;3.33;;;;;;;;;;5011709;28;20243;-65
2022/05/13 13:40:08;;;;;;;4.53;3.40;;;;;;;;;;5007334;28;20208;-66
2022/05/13 13:42:38;;;;;;;5.20;3.23;;;;;;;;;;4995365;28;20200;-65
2022/05/13 13:45:10;;;;;;;3.53;3.00;;;;;;;;;;4996050;28;20558;-64
2022/05/13 13:47:40;;;;;;;5.10;3.13;;;;;;;;;;5009458;28;20191;-65
2022/05/13 13:50:11;;;;;;;4.53;2.70;;;;;;;;;;4992702;28;20207;-62
2022/05/13 13:52:41;;;;;;;5.77;2.97;;;;;;;;;;4999284;28;20657;-63
2022/05/13 13:55:23;;;;;;;6.30;3.40;;;;;;;;;;5006553;28;20286;-62
2022/05/13 13:58:07;;;;;;;31.00;10.00;;;;;;;;;;4996069;28;20214;-62
2022/05/13 14:00:39;;;;;;;15.30;6.23;;;;;;;;;;5003129;28;20207;-62
2022/05/13 14:03:07;;;;;;;12.57;5.23;;;;;;;;;;5010872;28;20206;-62
2022/05/13 14:05:37;;;;;;;17.27;6.17;;;;;;;;;;5003366;28;20203;-63
2022/05/13 14:08:05;;;;;;;16.83;6.80;;;;;;;;;;5007498;28;20247;-62
2022/05/13 14:10:38;;;;;;;14.70;6.00;;;;;;;;;;5005298;28;20689;-63
2022/05/13 14:13:07;;;;;;;9.17;4.40;;;;;;;;;;4999049;28;20220;-63
2022/05/13 14:15:36;;;;;;;10.70;4.47;;;;;;;;;;4999045;28;20191;-63
2022/05/13 14:18:05;;;;;;;7.93;3.83;;;;;;;;;;4997305;28;20224;-64
2022/05/13 14:20:37;;;;;;;8.30;3.37;;;;;;;;;;4997364;28;20727;-64
2022/05/13 14:23:05;;;;;;;9.23;3.60;;;;;;;;;;5004716;28;20285;-63
2022/05/13 14:25:33;;;;;;;9.03;3.60;;;;;;;;;;5005122;28;20743;-63
2022/05/13 14:28:01;;;;;;;9.83;3.93;;;;;;;;;;4991754;28;20200;-63
2022/05/13 14:30:34;;;;;;;12.80;4.43;;;;;;;;;;4989778;28;20715;-63
2022/05/13 14:33:06;;;;;;;10.87;4.63;;;;;;;;;;4989876;28;20224;-63
2022/05/13 14:35:38;;;;;;;15.20;4.47;;;;;;;;;;4988485;28;20195;-63
2022/05/13 14:38:10;;;;;;;9.07;4.20;;;;;;;;;;5006244;28;20650;-62
2022/05/13 14:40:51;;;;;;;10.83;4.50;;;;;;;;;;5004084;28;20215;-62
2022/05/13 14:43:20;;;;;;;8.33;3.87;;;;;;;;;;5003192;28;20214;-63
2022/05/13 14:45:47;;;;;;;7.60;4.27;;;;;;;;;;5004651;28;20266;-63
2022/05/13 14:48:17;;;;;;;10.83;3.97;;;;;;;;;;5006354;28;20226;-63
2022/05/13 14:50:46;;;;;;;8.53;4.50;;;;;;;;;;5006196;28;20195;-63
2022/05/13 14:53:17;;;;;;;10.40;3.77;;;;;;;;;;5001541;28;20846;-63
2022/05/13 14:56:01;;;;;;;8.47;3.57;;;;;;;;;;5004805;28;20199;-63
2022/05/13 14:58:44;;;;;;;8.97;3.60;;;;;;;;;;5007184;28;20265;-63
2022/05/13 15:01:17;;;;;;;8.67;3.97;;;;;;;;;;5010036;28;20441;-62
2022/05/13 15:03:46;;;;;;;7.83;3.50;;;;;;;;;;5016779;28;20247;-62
2022/05/13 15:06:33;;;;;;;7.33;3.10;;;;;;;;;;5002779;28;20250;-59
2022/05/13 15:09:17;;;;;;;5.20;3.00;;;;;;;;;;5005697;28;20711;-60
2022/05/13 15:11:45;;;;;;;6.40;2.90;;;;;;;;;;5005880;28;20568;-59
2022/05/13 15:14:13;;;;;;;5.93;3.00;;;;;;;;;;4989880;28;20549;-61
2022/05/13 15:16:40;;;;;;;7.50;2.80;;;;;;;;;;4996457;28;20216;-61
2022/05/13 15:19:09;;;;;;;7.90;2.60;;;;;;;;;;5012813;28;20284;-61
2022/05/13 15:21:37;;;;;;;5.97;2.90;;;;;;;;;;5002652;28;20198;-69
2022/05/13 15:24:04;;;;;;;6.23;2.80;;;;;;;;;;4991995;28;20316;-62
2022/05/13 15:26:31;;;;;;;9.03;2.77;;;;;;;;;;5000235;28;20572;-62
2022/05/13 15:28:59;;;;;;;15.50;2.83;;;;;;;;;;4985947;28;20211;-64
2022/05/13 15:31:27;;;;;;;9.40;3.33;;;;;;;;;;5020688;28;20235;-63
2022/05/13 15:33:55;;;;;;;7.07;2.80;;;;;;;;;;4998140;28;20203;-62
2022/05/13 15:36:24;;;;;;;9.20;2.40;;;;;;;;;;4986817;28;20204;-63
2022/05/13 15:38:51;;;;;;;5.57;2.97;;;;;;;;;;5013553;28;20196;-63
2022/05/13 15:41:18;;;;;;;6.63;2.70;;;;;;;;;;5007390;28;20258;-62
2022/05/13 15:43:48;;;;;;;7.73;2.40;;;;;;;;;;5023809;28;20192;-61
2022/05/13 15:46:21;;;;;;;8.80;2.77;;;;;;;;;;5001407;28;20196;-63